Metigoshe, North Dakota
Current Conditions -  °F | °C
As of 4:35 AM on Saturday 01 Nov 2014 (Local Time) from KRUG Reporting Station
Clear Clear  
Wind Chill: 15°   Ceiling: Unl
Heat Index: 28°   Visibility: 10mi
Dew Point: 18°   Wind: 20mph
Humidity: 64%   Direction: 150°SSE
Pressure: 29.98"   Gusts: 25mph
Location:  48.8385°N, 100.496°W
Report Text: KRUG 010935Z AUTO 15017G22KT 10SM CLR M02/M08 A2998 RMK AO2
Loading
Personal Weather Stations






























Interactive Weather Map
Tropical Storm Tracking
New forecast layout! Learn more

10-Day Weather Forecast

Advertisements
Track Severe Weather on mobile